LFMC 221130Z AUTO VRB02KT 9999 ////// 17/07 Q1031

ElémentsDécodage
LFMC Station météo située sur l'aérodrome de LE-LUC Le-Cannet
221130Z émis le 22 du mois à 11h30 UTC
AUTO Bulletin édité par un automate
VRB02KT vent de direction variable, 02 noeuds
9999 visibilité horizontale supérieure à 10 Km
////// nébulosité (type et hauteur) non disponible
 type de nuage non observable
17/07 température 17°C, point de rosée 07°C
 soit une humidité relative de 52%
Q1031 la pression au niveau de la mer (QNH) est de 1031 hPa